Time;durP1;ratioP1;P1;durP2;ratioP2;P2;SDS_P1;SDS_P2;PMS_P1;PMS_P2;Temp;Humidity;BMP_temperature;BMP_pressure;BME280_temperature;BME280_humidity;BME280_pressure;Samples;Min_cycle;Max_cycle;Signal;HPM_P1;HPM_P2
2021/10/12 00:00:48;;;;;;;;;8.00;7.67;;;;;19.84;52.88;102471.16;4981012;28;45751;-71
2021/10/12 00:03:13;;;;;;;;;5.33;5.33;;;;;19.82;52.96;102455.09;4992824;28;45490;-71
2021/10/12 00:05:39;;;;;;;;;8.33;6.00;;;;;19.79;52.72;102458.00;4993132;28;45925;-71
2021/10/12 00:08:04;;;;;;;;;5.33;5.33;;;;;19.82;52.99;102459.63;4981997;28;45429;-71
2021/10/12 00:10:30;;;;;;;;;6.67;6.67;;;;;19.81;52.57;102463.25;4973151;28;45893;-71
2021/10/12 00:12:55;;;;;;;;;7.67;6.67;;;;;19.65;52.83;102439.19;4972692;28;47571;-71
2021/10/12 00:15:20;;;;;;;;;6.00;6.00;;;;;19.81;52.81;102457.88;4978374;28;45477;-71
2021/10/12 00:17:46;;;;;;;;;6.67;6.67;;;;;19.75;52.37;102451.09;4963392;28;45589;-71
2021/10/12 00:20:11;;;;;;;;;6.33;6.33;;;;;19.79;52.96;102463.41;4987273;28;48061;-71
2021/10/12 00:22:37;;;;;;;;;5.67;5.33;;;;;19.75;52.97;102448.41;4988666;28;45464;-71
2021/10/12 00:25:03;;;;;;;;;5.25;5.25;;;;;19.78;52.46;102471.56;4973651;28;45501;-71
2021/10/12 00:27:28;;;;;;;;;6.00;6.00;;;;;19.72;52.88;102464.75;4970101;28;45489;-71
2021/10/12 00:29:54;;;;;;;;;6.33;6.00;;;;;19.77;52.84;102476.09;4990282;28;47230;-71
2021/10/12 00:32:19;;;;;;;;;5.33;5.33;;;;;19.78;52.66;102476.97;4971173;28;45643;-71
2021/10/12 00:34:44;;;;;;;;;8.33;6.67;;;;;19.77;52.72;102478.78;4991971;28;45705;-71
2021/10/12 00:37:12;;;;;;;;;4.33;4.33;;;;;19.76;52.91;102468.97;4986896;28;45477;-71
2021/10/12 00:39:39;;;;;;;;;5.00;5.00;;;;;19.74;52.52;102469.06;4987336;28;46009;-71
2021/10/12 00:42:04;;;;;;;;;5.75;5.25;;;;;19.74;52.53;102470.88;4991698;28;45607;-71
2021/10/12 00:44:29;;;;;;;;;7.33;5.67;;;;;19.72;52.55;102471.00;4988741;28;45456;-71
2021/10/12 00:46:55;;;;;;;;;5.00;5.00;;;;;19.73;52.92;102459.25;4973350;28;45511;-70
2021/10/12 00:49:20;;;;;;;;;6.00;5.00;;;;;19.72;52.97;102459.34;4988439;28;45828;-71
2021/10/12 00:51:46;;;;;;;;;7.33;7.33;;;;;19.70;52.81;102464.84;4971204;28;46603;-70
2021/10/12 00:54:11;;;;;;;;;5.00;5.00;;;;;19.70;52.95;102472.94;4974637;28;45398;-71
2021/10/12 00:56:37;;;;;;;;;6.67;6.67;;;;;19.70;52.98;102466.69;4973650;28;45521;-70
2021/10/12 00:59:02;;;;;;;;;4.67;4.67;;;;;19.62;52.89;102451.03;4971377;28;48284;-70
2021/10/12 01:01:27;;;;;;;;;4.00;4.00;;;;;19.64;52.27;102443.72;4951049;28;45411;-71
2021/10/12 01:03:53;;;;;;;;;6.00;6.00;;;;;19.65;52.23;102445.44;4981838;28;45398;-70
2021/10/12 01:06:18;;;;;;;;;4.67;4.67;;;;;19.58;52.85;102431.50;4972806;28;45423;-71
2021/10/12 01:08:44;;;;;;;;;4.33;4.33;;;;;19.63;52.77;102436.59;4974456;28;47019;-71
2021/10/12 01:11:09;;;;;;;;;4.67;4.67;;;;;19.65;52.97;102433.81;4991792;28;47668;-71
2021/10/12 01:13:34;;;;;;;;;5.00;5.00;;;;;19.65;52.89;102423.03;4971203;28;45469;-71
2021/10/12 01:16:01;;;;;;;;;7.00;7.00;;;;;19.65;52.53;102433.81;4997164;28;45380;-71
2021/10/12 01:18:27;;;;;;;;;5.00;5.00;;;;;19.64;52.89;102426.66;4976279;28;46058;-71
2021/10/12 01:20:53;;;;;;;;;6.67;5.00;;;;;19.63;52.49;102420.44;4990131;28;46776;-71
2021/10/12 01:23:18;;;;;;;;;3.67;3.67;;;;;19.57;52.94;102413.63;4988190;28;45513;-71
2021/10/12 01:25:44;;;;;;;;;5.00;5.00;;;;;19.61;52.78;102420.53;4956871;28;45635;-71
2021/10/12 01:28:09;;;;;;;;;6.33;5.00;;;;;19.61;52.61;102411.56;4989420;28;46258;-71
2021/10/12 01:30:38;;;;;;;;;6.00;6.00;;;;;19.52;52.76;102388.81;4987546;28;45398;-71
2021/10/12 01:33:04;;;;;;;;;3.50;3.50;;;;;19.60;52.85;102407.16;4979539;28;45537;-71
2021/10/12 01:35:29;;;;;;;;;5.00;4.67;;;;;19.59;52.98;102408.13;4995433;28;45550;-71
2021/10/12 01:37:54;;;;;;;;;4.00;4.00;;;;;19.58;52.31;102403.72;4991707;28;45941;-71
2021/10/12 01:40:20;;;;;;;;;4.33;4.33;;;;;19.57;52.96;102400.16;4972504;28;47832;-71
2021/10/12 01:42:45;;;;;;;;;5.33;5.33;;;;;19.56;52.57;102393.03;4989653;28;45358;-71
2021/10/12 01:45:11;;;;;;;;;5.00;5.00;;;;;19.55;52.78;102388.63;4979515;28;46937;-71
2021/10/12 01:47:37;;;;;;;;;6.00;5.67;;;;;19.55;52.54;102385.94;4988714;28;45484;-71
2021/10/12 01:50:04;;;;;;;;;5.00;5.00;;;;;19.55;52.87;102374.28;4983925;28;45303;-71
2021/10/12 01:52:29;;;;;;;;;5.00;5.00;;;;;19.41;52.90;102346.44;4990600;28;45442;-71
2021/10/12 01:54:55;;;;;;;;;4.67;4.00;;;;;19.55;52.62;102363.50;4987274;28;45397;-71
2021/10/12 01:57:20;;;;;;;;;7.67;6.00;;;;;19.52;52.88;102363.72;4987045;28;45861;-71
2021/10/12 01:59:46;;;;;;;;;6.67;4.00;;;;;19.49;52.44;102345.91;4987932;28;47668;-71
2021/10/12 02:02:11;;;;;;;;;5.00;5.00;;;;;19.51;52.49;102354.78;4971195;28;45483;-71
2021/10/12 02:04:37;;;;;;;;;6.00;6.00;;;;;19.51;52.89;102362.84;4972515;28;45746;-71
2021/10/12 02:07:02;;;;;;;;;5.00;5.00;;;;;19.48;52.59;102363.94;4985852;28;49761;-71
2021/10/12 02:09:28;;;;;;;;;7.00;5.33;;;;;19.51;52.83;102370.06;4979311;28;45433;-71
2021/10/12 02:11:53;;;;;;;;;6.00;4.67;;;;;19.48;52.70;102361.25;4991510;28;45482;-71
2021/10/12 02:14:19;;;;;;;;;6.00;6.00;;;;;19.43;52.97;102360.69;4960557;28;45432;-71
2021/10/12 02:16:44;;;;;;;;;7.67;5.33;;;;;19.48;52.54;102376.50;4977015;28;45428;-70
2021/10/12 02:19:09;;;;;;;;;5.67;5.00;;;;;19.48;52.76;102376.50;4985479;28;45402;-71
2021/10/12 02:21:35;;;;;;;;;4.00;3.67;;;;;19.47;52.56;102372.97;4967442;28;45520;-71
2021/10/12 02:24:00;;;;;;;;;5.75;5.00;;;;;19.46;52.84;102386.53;4985135;28;45558;-71
2021/10/12 02:26:26;;;;;;;;;5.00;5.00;;;;;19.45;52.50;102377.59;4953995;28;48706;-71
2021/10/12 02:28:51;;;;;;;;;5.33;3.67;;;;;19.44;52.51;102370.47;4974835;28;45497;-71
2021/10/12 02:31:17;;;;;;;;;4.00;4.00;;;;;19.44;52.63;102359.72;4987544;28;45434;-71
2021/10/12 02:33:42;;;;;;;;;3.67;3.00;;;;;19.42;52.90;102361.63;4986260;28;46794;-71
2021/10/12 02:36:08;;;;;;;;;4.25;4.25;;;;;19.41;52.85;102354.50;4994917;28;46122;-71
2021/10/12 02:38:33;;;;;;;;;6.50;6.00;;;;;19.41;52.45;102346.44;4990069;28;45467;-71
2021/10/12 02:40:58;;;;;;;;;5.33;5.33;;;;;19.40;52.72;102344.72;4989184;28;45977;-71
2021/10/12 02:43:24;;;;;;;;;5.25;4.50;;;;;19.15;52.33;102287.13;4986577;28;45753;-71
2021/10/12 02:45:50;;;;;;;;;5.33;3.67;;;;;19.39;52.93;102340.31;4984666;28;45552;-71
2021/10/12 02:48:15;;;;;;;;;7.00;5.00;;;;;19.37;52.88;102334.13;4978541;28;45540;-71
2021/10/12 02:50:43;;;;;;;;;3.33;3.33;;;;;19.36;52.76;102343.19;4987950;28;45506;-71
2021/10/12 02:53:09;;;;;;;;;4.33;3.67;;;;;19.32;52.64;102333.59;4984719;28;45486;-71
2021/10/12 02:55:35;;;;;;;;;5.00;5.00;;;;;19.36;52.72;102343.19;4988096;28;46258;-71
2021/10/12 02:58:00;;;;;;;;;5.75;5.50;;;;;19.28;52.95;102335.63;4984859;28;61927;-71
2021/10/12 03:00:26;;;;;;;;;5.00;3.00;;;;;19.25;52.99;102329.59;4970977;28;64706;-71
2021/10/12 03:02:51;;;;;;;;;4.00;4.00;;;;;19.29;52.74;102323.88;4991616;28;53434;-71
2021/10/12 03:05:16;;;;;;;;;4.00;4.00;;;;;19.34;52.70;102339.75;4973263;28;75573;-71
2021/10/12 03:07:42;;;;;;;;;3.50;3.50;;;;;19.33;52.44;102335.34;4988094;28;45500;-71
2021/10/12 03:10:07;;;;;;;;;5.00;5.00;;;;;19.32;52.73;102326.38;4984520;28;62133;-71
2021/10/12 03:12:33;;;;;;;;;4.00;4.00;;;;;19.31;52.35;102337.25;4986151;28;45314;-71
2021/10/12 03:14:58;;;;;;;;;4.00;4.00;;;;;19.27;52.85;102341.97;4980426;28;47304;-71
2021/10/12 03:17:24;;;;;;;;;4.00;4.00;;;;;19.31;52.83;102337.25;4959876;28;45620;-71
2021/10/12 03:19:49;;;;;;;;;4.00;4.00;;;;;19.28;52.39;102332.94;4971689;28;45829;-71
2021/10/12 03:22:15;;;;;;;;;8.00;4.67;;;;;19.12;52.51;102313.38;4974101;28;60889;-71
2021/10/12 03:24:41;;;;;;;;;4.67;4.67;;;;;19.29;52.59;102352.66;4985251;28;46052;-71
2021/10/12 03:27:07;;;;;;;;;5.00;4.67;;;;;19.28;52.59;102348.22;4989302;28;45265;-71
2021/10/12 03:29:32;;;;;;;;;5.00;4.00;;;;;19.21;52.30;102340.53;4986398;28;45406;-71
2021/10/12 03:32:01;;;;;;;;;5.00;5.00;;;;;19.27;52.58;102343.78;4961236;28;45398;-71
2021/10/12 03:34:27;;;;;;;;;7.00;4.67;;;;;19.26;52.94;102331.31;4988742;28;46384;-71
2021/10/12 03:36:53;;;;;;;;;4.67;4.67;;;;;19.20;52.91;102322.66;4988110;28;45610;-71
2021/10/12 03:39:18;;;;;;;;;5.67;5.67;;;;;19.24;52.49;102315.25;4974803;28;45596;-71
2021/10/12 03:41:44;;;;;;;;;3.00;3.00;;;;;19.24;52.80;102303.63;4974978;28;65936;-71
2021/10/12 03:44:09;;;;;;;;;4.67;4.00;;;;;19.23;52.62;102300.06;4990519;28;46337;-71
2021/10/12 03:46:35;;;;;;;;;5.00;5.00;;;;;19.22;52.43;102298.34;4996842;28;65030;-71
2021/10/12 03:49:00;;;;;;;;;5.50;4.00;;;;;19.20;52.63;102317.28;4976453;28;69210;-71
2021/10/12 03:51:25;;;;;;;;;4.00;4.00;;;;;19.20;52.42;102319.97;4988730;28;70443;-71
2021/10/12 03:53:51;;;;;;;;;4.00;4.00;;;;;19.15;52.54;102318.53;4989638;28;73641;-71
2021/10/12 03:56:16;;;;;;;;;7.00;5.75;;;;;19.19;52.62;102314.69;4972525;28;70279;-71
2021/10/12 03:58:41;;;;;;;;;6.00;6.00;;;;;19.18;52.45;102324.59;4988998;28;65594;-72
2021/10/12 04:01:07;;;;;;;;;4.50;4.50;;;;;19.18;52.93;102323.75;4977181;28;45548;-70
2021/10/12 04:03:32;;;;;;;;;4.50;4.50;;;;;19.18;52.59;102323.75;4987161;28;75682;-71
2021/10/12 04:05:57;;;;;;;;;4.00;4.00;;;;;19.02;52.71;102303.19;4990455;28;71226;-71
2021/10/12 04:08:23;;;;;;;;;4.50;4.50;;;;;19.17;52.28;102316.63;4986709;28;61773;-71
2021/10/12 04:10:48;;;;;;;;;5.00;4.25;;;;;19.16;52.35;102313.06;4988340;28;69056;-71
2021/10/12 04:13:13;;;;;;;;;3.00;3.00;;;;;19.14;52.76;102312.31;4972194;28;74023;-71
2021/10/12 04:15:39;;;;;;;;;4.67;4.00;;;;;19.15;52.48;102315.84;4972402;28;67524;-71
2021/10/12 04:18:04;;;;;;;;;8.00;4.67;;;;;19.10;52.36;102310.78;4990724;28;69070;-70
2021/10/12 04:20:30;;;;;;;;;3.00;3.00;;;;;19.13;52.40;102312.41;4988267;28;45455;-71
2021/10/12 04:22:56;;;;;;;;;5.00;4.00;;;;;19.12;52.75;102322.31;4979576;28;68949;-71
2021/10/12 04:25:21;;;;;;;;;4.50;4.50;;;;;19.09;52.52;102320.69;4973703;28;45527;-71
2021/10/12 04:27:47;;;;;;;;;6.00;5.00;;;;;19.05;52.71;102300.31;4987945;28;45450;-71
2021/10/12 04:30:12;;;;;;;;;6.00;5.00;;;;;19.09;52.60;102318.00;4979390;28;45533;-71
2021/10/12 04:32:38;;;;;;;;;4.67;4.67;;;;;19.08;52.76;102305.50;4973765;28;46896;-71
2021/10/12 04:35:03;;;;;;;;;5.00;3.00;;;;;19.06;52.41;102291.28;4963882;28;70645;-71
2021/10/12 04:37:29;;;;;;;;;5.33;5.33;;;;;19.07;52.45;102303.78;4971614;28;51175;-71
2021/10/12 04:39:54;;;;;;;;;4.25;4.25;;;;;19.06;53.02;102312.81;4972627;28;65826;-71
2021/10/12 04:42:20;;;;;;;;;4.50;4.50;;;;;19.05;52.86;102311.06;4960415;28;73052;-71
2021/10/12 04:44:48;;;;;;;;;5.00;3.50;;;;;19.05;52.70;102313.75;4987702;28;45622;-71
2021/10/12 04:47:14;;;;;;;;;3.33;3.33;;;;;19.06;53.16;102322.72;4973239;28;45505;-71
2021/10/12 04:49:39;;;;;;;;;4.00;4.00;;;;;19.06;53.00;102320.91;4987795;28;45396;-71
2021/10/12 04:52:05;;;;;;;;;5.25;4.00;;;;;18.91;52.63;102290.44;4991294;28;45997;-71
2021/10/12 04:54:30;;;;;;;;;4.33;4.33;;;;;19.08;52.67;102315.38;4971234;28;68204;-71
2021/10/12 04:56:55;;;;;;;;;5.33;4.00;;;;;19.06;52.67;102293.13;4980143;28;69353;-71
2021/10/12 04:59:21;;;;;;;;;6.00;6.00;;;;;19.11;53.10;102309.81;4964137;28;68495;-71
2021/10/12 05:01:46;;;;;;;;;4.00;4.00;;;;;19.11;52.75;102299.06;4982204;28;53325;-70
2021/10/12 05:04:12;;;;;;;;;4.00;4.00;;;;;19.08;52.73;102299.25;4984190;28;71391;-70
2021/10/12 05:06:37;;;;;;;;;5.25;5.25;;;;;18.44;52.68;102201.97;4983318;28;45405;-71
2021/10/12 05:09:02;;;;;;;;;4.75;4.75;;;;;19.18;52.92;102321.03;4982101;28;70466;-71
2021/10/12 05:11:28;;;;;;;;;5.25;3.50;;;;;19.20;52.75;102330.75;4979580;28;46972;-70
2021/10/12 05:13:55;;;;;;;;;3.75;3.75;;;;;19.17;53.42;102319.31;4972112;28;56918;-71
2021/10/12 05:16:21;;;;;;;;;4.75;4.00;;;;;19.19;53.23;102309.31;4984485;28;45547;-71
2021/10/12 05:18:48;;;;;;;;;3.75;3.75;;;;;19.23;53.30;102310.84;4963757;28;45496;-71
2021/10/12 05:21:13;;;;;;;;;4.25;4.25;;;;;19.17;52.93;102300.50;4979845;28;45563;-70
2021/10/12 05:23:38;;;;;;;;;5.67;5.00;;;;;19.26;53.03;102309.78;4961000;28;72923;-70
2021/10/12 05:26:05;;;;;;;;;3.00;3.00;;;;;19.27;52.83;102306.09;4981379;28;45490;-70
2021/10/12 05:28:30;;;;;;;;;5.33;4.00;;;;;19.28;53.38;102313.22;4968483;28;45893;-70
2021/10/12 05:30:56;;;;;;;;;4.67;4.33;;;;;19.12;52.98;102284.63;4966813;28;52615;-70
2021/10/12 05:33:21;;;;;;;;;4.67;4.67;;;;;19.26;52.68;102302.56;4986725;28;45530;-70
2021/10/12 05:35:48;;;;;;;;;3.00;3.00;;;;;19.29;52.98;102304.19;4982233;28;45315;-69
2021/10/12 05:38:18;;;;;;;;;6.00;5.00;;;;;19.22;52.78;102298.34;4973274;28;50286;-70
2021/10/12 05:40:43;;;;;;;;;5.00;5.00;;;;;19.28;53.27;102308.69;4985886;28;45526;-70
2021/10/12 05:43:08;;;;;;;;;9.00;5.00;;;;;19.27;53.21;102295.34;4988345;28;45605;-70
2021/10/12 05:45:34;;;;;;;;;4.00;4.00;;;;;19.29;52.78;102301.50;4972898;28;47680;-67
2021/10/12 05:48:00;;;;;;;;;4.67;3.00;;;;;19.26;52.97;102290.94;4978261;28;45569;-70
2021/10/12 05:50:26;;;;;;;;;4.67;4.00;;;;;19.30;53.35;102297.84;4980171;28;47132;-67
2021/10/12 05:55:34;;;;;;;;;4.33;4.00;;;;;19.42;54.03;102323.06;4985105;28;46087;-66
2021/10/12 05:58:43;;;;;;;;;6.00;6.00;;;;;19.51;53.99;102317.06;4978749;28;45460;-67
2021/10/12 06:00:48;;;;;;;;;5.00;3.00;;;;;19.60;54.34;102311.06;4982032;28;46021;-67
2021/10/12 06:03:13;;;;;;;;;9.67;6.00;;;;;19.67;54.46;102324.13;4981411;28;67806;-67
2021/10/12 06:05:39;;;;;;;;;7.67;7.00;;;;;19.75;54.27;102311.84;4985468;28;68319;-67
2021/10/12 06:08:04;;;;;;;;;7.00;5.00;;;;;19.83;53.66;102307.78;4988039;28;70584;-67
2021/10/12 06:10:30;;;;;;;;;9.00;5.00;;;;;19.87;53.44;102311.97;4983495;28;68586;-67
2021/10/12 06:12:55;;;;;;;;;5.00;4.67;;;;;19.91;53.37;102301.84;4982493;28;45618;-67
2021/10/12 06:15:20;;;;;;;;;4.33;4.33;;;;;19.93;53.60;102306.16;4989324;28;51004;-67
2021/10/12 06:17:46;;;;;;;;;4.33;4.33;;;;;19.95;53.41;102309.59;4988568;28;69053;-67
2021/10/12 06:20:11;;;;;;;;;6.33;4.67;;;;;19.95;53.71;102306.06;4988208;28;45487;-66
2021/10/12 06:22:37;;;;;;;;;4.33;4.33;;;;;19.95;53.36;102296.13;4981915;28;72046;-67
2021/10/12 06:25:02;;;;;;;;;7.00;3.33;;;;;19.95;53.30;102303.38;4986030;28;45485;-67
2021/10/12 06:27:27;;;;;;;;;3.67;3.67;;;;;19.91;52.92;102300.03;4986523;28;45570;-67
2021/10/12 06:29:53;;;;;;;;;3.67;3.67;;;;;19.77;52.86;102283.94;4986751;28;49968;-67
2021/10/12 06:32:18;;;;;;;;;7.33;5.00;;;;;19.87;52.93;102301.19;4976555;28;71357;-67
2021/10/12 06:34:43;;;;;;;;;8.67;6.00;;;;;19.84;53.10;102293.31;4988632;28;45346;-67
2021/10/12 06:37:09;;;;;;;;;3.67;3.67;;;;;19.82;53.15;102298.81;4980680;28;69467;-67
2021/10/12 06:39:35;;;;;;;;;7.67;5.33;;;;;19.80;53.37;102302.56;4978797;28;75480;-67
2021/10/12 06:42:01;;;;;;;;;6.00;5.33;;;;;19.78;53.06;102305.38;4982656;28;45502;-67
2021/10/12 06:44:26;;;;;;;;;6.50;6.50;;;;;19.77;53.22;102310.91;4965027;28;46149;-65
2021/10/12 06:46:51;;;;;;;;;6.67;4.00;;;;;19.74;53.66;102304.72;4978666;28;64843;-70
2021/10/12 06:49:17;;;;;;;;;9.67;6.00;;;;;19.75;53.19;102314.53;4968293;28;46888;-69
2021/10/12 06:51:43;;;;;;;;;6.00;5.00;;;;;19.75;52.86;102311.00;4979486;28;69965;-69
2021/10/12 06:54:08;;;;;;;;;7.00;4.33;;;;;19.73;53.02;102312.91;4973494;28;45453;-69
2021/10/12 06:56:34;;;;;;;;;8.33;5.00;;;;;19.71;53.40;102306.78;4989246;28;67409;-69
2021/10/12 06:58:59;;;;;;;;;10.67;6.00;;;;;19.69;53.52;102308.69;4997120;28;47152;-66
2021/10/12 07:01:25;;;;;;;;;6.33;6.33;;;;;19.69;53.40;102316.78;4980334;28;70422;-67
2021/10/12 07:03:50;;;;;;;;;5.33;5.00;;;;;19.67;53.32;102310.66;4983215;28;45797;-67
2021/10/12 07:06:16;;;;;;;;;5.00;5.00;;;;;19.66;53.98;102315.16;4980307;28;46823;-67
2021/10/12 07:08:41;;;;;;;;;7.00;4.00;;;;;19.67;54.34;102311.53;4970280;28;69905;-65
2021/10/12 07:11:06;;;;;;;;;5.67;5.00;;;;;19.70;54.03;102313.13;4973559;28;66412;-65
2021/10/12 07:13:32;;;;;;;;;7.67;5.33;;;;;19.71;54.01;102313.00;4985584;28;45578;-65
2021/10/12 07:15:57;;;;;;;;;6.00;5.67;;;;;19.75;54.17;102314.53;4981121;28;46027;-66
2021/10/12 07:18:23;;;;;;;;;6.67;4.67;;;;;19.80;54.74;102308.84;4980685;28;45919;-66
2021/10/12 07:20:50;;;;;;;;;4.67;4.67;;;;;19.85;54.27;102309.38;4986260;28;45770;-67
2021/10/12 07:23:17;;;;;;;;;9.33;4.00;;;;;19.92;54.59;102304.44;4986013;28;45437;-66
2021/10/12 07:25:45;;;;;;;;;5.33;5.33;;;;;19.94;54.56;102294.41;4991664;28;45578;-66
2021/10/12 07:28:11;;;;;;;;;5.33;5.33;;;;;19.97;54.59;102305.00;4984609;28;46272;-67
2021/10/12 07:30:36;;;;;;;;;4.67;4.00;;;;;19.99;54.63;102300.38;4980864;28;72837;-66
2021/10/12 07:33:01;;;;;;;;;6.67;5.67;;;;;20.01;54.40;102284.97;4981675;28;45458;-67
2021/10/12 07:35:27;;;;;;;;;6.00;6.00;;;;;20.04;54.19;102294.66;4983767;28;64578;-66
2021/10/12 07:37:55;;;;;;;;;5.00;4.67;;;;;20.06;54.44;102295.41;4986505;28;75793;-67
2021/10/12 07:40:20;;;;;;;;;9.00;7.00;;;;;20.07;54.11;102288.19;4990874;28;45398;-67
2021/10/12 07:42:45;;;;;;;;;6.33;6.33;;;;;20.10;54.16;102294.22;4976562;28;64107;-67
2021/10/12 07:45:11;;;;;;;;;5.00;5.00;;;;;20.11;54.56;102295.09;4986389;28;66782;-67
2021/10/12 07:47:37;;;;;;;;;4.00;4.00;;;;;20.13;54.18;102296.72;4983101;28;45420;-67
2021/10/12 07:50:02;;;;;;;;;6.00;6.00;;;;;20.14;54.04;102290.34;4986185;28;45856;-68
2021/10/12 07:52:30;;;;;;;;;6.00;6.00;;;;;20.17;53.94;102288.41;4980728;28;45548;-66
2021/10/12 07:57:30;;;;;;;;;6.67;6.00;;;;;20.07;53.90;102267.47;4975862;28;45583;-74
2021/10/12 07:59:55;;;;;;;;;5.00;5.00;;;;;20.24;54.00;102293.25;4990166;28;72477;-72
2021/10/12 08:02:21;;;;;;;;;6.00;6.00;;;;;20.31;54.20;102287.44;4984880;28;66449;-70
2021/10/12 08:04:46;;;;;;;;;4.67;4.67;;;;;20.43;54.57;102288.41;4992076;28;66159;-71
2021/10/12 08:07:11;;;;;;;;;10.67;8.00;;;;;20.57;54.14;102287.38;4985525;28;72370;-71
2021/10/12 08:09:37;;;;;;;;;5.33;5.33;;;;;20.73;54.61;102282.63;4986084;28;45457;-70
2021/10/12 08:12:03;;;;;;;;;4.67;4.67;;;;;20.88;53.69;102291.44;4983008;28;45930;-70
2021/10/12 08:14:29;;;;;;;;;7.00;5.00;;;;;21.03;54.00;102280.47;4984372;28;45555;-71
2021/10/12 08:16:55;;;;;;;;;6.00;5.33;;;;;21.13;53.79;102286.06;4982644;28;45521;-72
2021/10/12 08:19:20;;;;;;;;;7.33;6.00;;;;;21.23;53.55;102278.09;4983549;28;55299;-72
2021/10/12 08:21:45;;;;;;;;;8.33;7.00;;;;;21.33;53.83;102279.13;4983686;28;63923;-72
2021/10/12 08:24:12;;;;;;;;;7.00;7.00;;;;;21.42;53.17;102281.13;4986877;28;62248;-72
2021/10/12 08:26:39;;;;;;;;;6.00;5.00;;;;;21.52;52.97;102267.78;4987865;28;46042;-73
2021/10/12 08:29:05;;;;;;;;;8.33;7.00;;;;;21.61;52.79;102273.47;4973466;28;45533;-72
2021/10/12 08:31:30;;;;;;;;;7.00;6.00;;;;;21.65;52.89;102270.41;4977653;28;45762;-72
2021/10/12 08:33:55;;;;;;;;;7.33;6.33;;;;;21.65;53.10;102264.13;4983799;28;63451;-73
2021/10/12 08:36:21;;;;;;;;;8.00;6.33;;;;;21.73;53.09;102266.28;4988840;28;45639;-72
2021/10/12 08:38:46;;;;;;;;;7.00;7.00;;;;;21.75;52.80;102267.91;4979893;28;45617;-72
2021/10/12 08:41:12;;;;;;;;;6.00;5.00;;;;;21.78;52.97;102251.41;4990150;28;45937;-73
2021/10/12 08:43:38;;;;;;;;;4.00;4.00;;;;;21.81;52.36;102253.88;4967250;28;45471;-71
2021/10/12 08:46:04;;;;;;;;;8.00;6.00;;;;;21.85;52.51;102257.22;4984216;28;46812;-73
2021/10/12 08:48:32;;;;;;;;;6.00;6.00;;;;;21.89;52.50;102245.19;4984861;28;51368;-72
2021/10/12 08:50:59;;;;;;;;;5.00;5.00;;;;;21.92;52.15;102242.25;4999275;28;45665;-71
2021/10/12 08:53:26;;;;;;;;;6.33;6.33;;;;;21.96;52.71;102248.25;4995306;28;45928;-71
2021/10/12 08:55:52;;;;;;;;;4.00;4.00;;;;;22.03;52.40;102248.63;4978720;28;46879;-70
2021/10/12 08:58:17;;;;;;;;;6.67;5.33;;;;;22.10;52.16;102241.75;4993211;28;45570;-71
2021/10/12 09:00:43;;;;;;;;;6.33;6.33;;;;;22.18;51.98;102238.41;4978492;28;69340;-72
2021/10/12 09:05:59;;;;;;;;;4.67;4.67;;;;;22.29;52.12;102232.16;4996494;28;45438;-72
2021/10/12 09:08:25;;;;;;;;;5.00;5.00;;;;;22.37;51.68;102238.66;4960851;28;45351;-71
2021/10/12 09:10:50;;;;;;;;;6.00;6.00;;;;;22.42;51.67;102237.41;4991586;28;45562;-71
2021/10/12 09:13:17;;;;;;;;;5.00;5.00;;;;;22.46;51.64;102230.78;4989493;28;45430;-72
2021/10/12 09:15:42;;;;;;;;;6.00;5.33;;;;;22.49;51.58;102225.13;4981622;28;46070;-72
2021/10/12 09:18:07;;;;;;;;;4.33;4.33;;;;;22.47;51.44;102213.56;4990479;28;72106;-74
2021/10/12 09:20:33;;;;;;;;;5.33;5.00;;;;;22.45;49.66;102211.00;4975263;28;46110;-72
2021/10/12 09:23:07;;;;;;;;;7.00;7.00;;;;;22.33;49.03;102210.16;4994131;28;45821;-75
2021/10/12 09:25:43;;;;;;;;;7.00;5.67;;;;;22.24;48.78;102211.75;4983771;28;46154;-75
2021/10/12 09:28:22;;;;;;;;;7.00;5.33;;;;;22.09;48.96;102197.63;4983543;28;45497;-75
2021/10/12 09:30:47;;;;;;;;;4.00;4.00;;;;;21.94;49.09;102197.00;4969596;28;48882;-75
2021/10/12 09:33:13;;;;;;;;;5.00;5.00;;;;;21.88;49.60;102207.44;4962664;28;68475;-75
2021/10/12 09:35:38;;;;;;;;;5.67;4.67;;;;;21.79;49.50;102209.06;4991065;28;47302;-75
2021/10/12 09:38:11;;;;;;;;;4.67;4.67;;;;;21.68;49.37;102199.03;4989396;28;45375;-74
2021/10/12 09:40:39;;;;;;;;;5.67;5.67;;;;;21.62;49.43;102196.84;4956556;28;45466;-75
2021/10/12 09:43:04;;;;;;;;;4.00;4.00;;;;;21.45;49.53;102178.25;4983960;28;45572;-76
2021/10/12 09:45:37;;;;;;;;;8.00;6.00;;;;;21.48;49.81;102200.59;4958294;28;52531;-75
2021/10/12 09:48:02;;;;;;;;;5.33;4.00;;;;;21.44;49.66;102192.75;4992059;28;48530;-73
2021/10/12 09:50:34;;;;;;;;;5.67;4.67;;;;;21.38;49.49;102190.50;4971190;28;48100;-74
2021/10/12 09:53:00;;;;;;;;;6.33;3.00;;;;;21.20;49.57;102168.50;4988692;28;45414;-73
2021/10/12 09:55:38;;;;;;;;;6.67;3.67;;;;;21.26;50.10;102177.97;4976085;28;46410;-74
2021/10/12 09:58:04;;;;;;;;;4.00;4.00;;;;;21.24;49.62;102182.63;4986726;28;70931;-74
2021/10/12 10:00:29;;;;;;;;;3.67;3.67;;;;;21.13;50.07;102159.16;4972783;28;45417;-73
2021/10/12 10:02:56;;;;;;;;;6.67;5.67;;;;;21.17;49.70;102177.69;4964397;28;45377;-73
2021/10/12 10:05:21;;;;;;;;;4.67;3.33;;;;;21.20;49.69;102187.41;4964143;28;49770;-69
2021/10/12 10:07:47;;;;;;;;;6.00;6.00;;;;;21.19;50.08;102173.06;4975395;28;45551;-69
2021/10/12 10:10:14;;;;;;;;;8.00;6.00;;;;;21.28;49.67;102176.88;4970734;28;45494;-69
2021/10/12 10:12:40;;;;;;;;;7.67;5.00;;;;;21.33;49.94;102176.50;4985800;28;45672;-69
2021/10/12 10:15:05;;;;;;;;;7.00;6.67;;;;;21.38;50.19;102178.88;4989500;28;45398;-69
2021/10/12 10:17:31;;;;;;;;;7.00;4.00;;;;;21.39;49.68;102180.56;4985851;28;54105;-70
2021/10/12 10:19:56;;;;;;;;;7.00;6.00;;;;;21.33;49.55;102173.81;4980693;28;54859;-74
2021/10/12 10:22:55;;;;;;;;;6.33;4.67;;;;;21.31;50.19;102173.06;4959345;28;45335;-74
2021/10/12 10:25:31;;;;;;;;;8.67;8.00;;;;;21.19;49.97;102170.34;4980526;28;47559;-74
2021/10/12 10:27:57;;;;;;;;;9.33;6.00;;;;;21.12;49.66;102174.50;4982264;28;45411;-74
2021/10/12 10:30:29;;;;;;;;;6.00;6.00;;;;;21.04;49.85;102168.81;4988026;28;45496;-74
2021/10/12 10:33:02;;;;;;;;;5.00;5.00;;;;;20.97;49.92;102170.28;4989903;28;45403;-77
2021/10/12 10:35:41;;;;;;;;;6.67;6.67;;;;;20.90;50.48;102159.06;4959547;28;45948;-76
2021/10/12 10:38:19;;;;;;;;;8.67;7.00;;;;;20.92;50.50;102163.38;4989026;28;45415;-77
2021/10/12 10:40:44;;;;;;;;;5.00;5.00;;;;;20.89;50.56;102162.75;4994999;28;45481;-78
2021/10/12 10:43:10;;;;;;;;;7.00;6.33;;;;;20.78;50.31;102150.91;4972655;28;45489;-78
2021/10/12 10:45:53;;;;;;;;;5.00;5.00;;;;;20.82;50.99;102158.75;4992988;28;46167;-78
2021/10/12 10:48:20;;;;;;;;;5.67;5.67;;;;;20.78;50.94;102156.31;4989019;28;51177;-72
2021/10/12 10:50:45;;;;;;;;;5.00;5.00;;;;;20.77;50.60;102154.56;4990285;28;45390;-72
2021/10/12 10:53:11;;;;;;;;;5.00;5.00;;;;;20.75;50.72;102158.34;4986086;28;45491;-71
2021/10/12 10:55:41;;;;;;;;;7.67;4.33;;;;;20.69;50.86;102142.63;4997713;28;46395;-72
2021/10/12 10:58:17;;;;;;;;;4.33;4.33;;;;;20.69;51.04;102154.31;4982442;28;45485;-70
2021/10/12 11:00:43;;;;;;;;;5.33;5.33;;;;;20.70;51.38;102147.94;4986966;28;45522;-69
2021/10/12 11:03:11;;;;;;;;;5.00;5.00;;;;;20.71;51.46;102146.06;4991269;28;45522;-70
2021/10/12 11:05:42;;;;;;;;;7.00;7.00;;;;;20.76;51.46;102150.16;4970281;28;54193;-70
2021/10/12 11:08:20;;;;;;;;;7.67;7.00;;;;;20.82;51.50;102142.56;4999901;28;45608;-70
2021/10/12 11:11:07;;;;;;;;;5.00;5.00;;;;;20.85;51.25;102135.09;4991878;28;45832;-70
2021/10/12 11:13:39;;;;;;;;;5.33;5.00;;;;;20.90;51.75;102138.34;4971658;28;45543;-69
2021/10/12 11:16:14;;;;;;;;;7.00;5.00;;;;;20.97;51.48;102125.22;4970571;28;47118;-70
2021/10/12 11:18:41;;;;;;;;;5.33;5.33;;;;;21.04;51.42;102128.31;4983389;28;47604;-72
2021/10/12 11:21:08;;;;;;;;;6.67;6.67;;;;;21.10;50.35;102121.59;4966617;28;45353;-72
2021/10/12 11:23:35;;;;;;;;;7.33;6.33;;;;;21.10;50.73;102116.19;4973448;28;45541;-72
2021/10/12 11:26:03;;;;;;;;;6.33;5.67;;;;;21.18;50.49;102120.00;4950840;28;45494;-72
2021/10/12 11:28:29;;;;;;;;;4.00;2.67;;;;;21.19;50.59;102123.59;4969607;28;45417;-72